Burns, KS (66840)

7:07 PM CDT on August 03, 2015 (GMT -0500)
Marion County Lake | | Change Station
CLOSE
Current Station
Personal Weather Station
Location: Marion, KS
Elevation: 1362 ft
Nearby Weather Stations

Elev 1362 ft 38.32 °N, 96.99 °W | Updated 6 seconds ago

Partly Cloudy
Partly Cloudy
90.9 °F
Feels Like 94 °F
N
4.5
Wind Variable Wind from North
Gusts 6.0 mph

Today
High -- | Low -- °F
--% Chance of Precip.
Yesterday
High -- | Low -- °F
Precip. -- in
6:31 AM 8:35 PM
Waning Gibbous, 83% visible
Pressure 29.93 in
Visibility 10.0 miles
Clouds Clear
Heat Index 94 °F
Dew Point 67 °F
Humidity 46%
Rainfall 0.00 in
Snow Depth Not available.
UV 1 out of 12
Pollen 6.90 out of 12
Air Quality Not available.
Flu Activity Not available.
METAR KEWK 032355Z AUTO 16009KT 10SM CLR 32/20 A2993 RMK AO1 10340 20310 403400200 57010

More Conditions Fewer Conditions

Pressure 29.93 in
Visibility 10.0 miles
Clouds Clear
Heat Index 94 °F
Dew Point 67 °F
Humidity 46%
Rainfall 0.00 in
Snow Depth Not available.
UV 1 out of 12
Pollen 6.90 out of 12
Air Quality Not available.
Flu Activity Not available.
METAR KEWK 032355Z AUTO 16009KT 10SM CLR 32/20 A2993 RMK AO1 10340 20310 403400200 57010

More Conditions Fewer Conditions

10-Day Weather Forecast

×

Almanac

Astronomy

Aug. 03, 2015 Rise Set
Actual Time
Civil Twilight
Nautical Twilight
Astronomical Twilight
Moon
Length of Visible Light
Length of Day
Tomorrow will be .
, % of the Moon is Illuminated

Today's Extremes

State Highs State Lows

Community

WunderPhotos

Upload Photos

1,843,788 photos uploaded!

WunderBlogs® & News

Nearby

Air Quality

  Air Quality AQ Index Pollutant
Not available.

Snow Depth

Station Depth Elevation

Earthquake Activity

City Distance Mag. Time & Date
Minimum magnitude displayed is 2.5.

Coastal Water Temperatures

Place Temperature

Stations

Nearby Weather Stations

Station Location Temp. Windchill Dew Point Humidity Wind Precip. Elev Updated Type